createdAt,value
2019-02-11T00:00:22.487Z,0.63
2019-02-11T00:02:49.073Z,0.70
2019-02-11T00:05:15.452Z,0.70
2019-02-11T00:07:44.774Z,0.70
2019-02-11T00:10:11.330Z,0.80
2019-02-11T00:12:37.895Z,1.00
2019-02-11T00:15:04.749Z,0.70
2019-02-11T00:17:31.228Z,0.80
2019-02-11T00:19:57.766Z,1.00
2019-02-11T00:22:24.157Z,0.80
2019-02-11T00:24:50.612Z,0.77
2019-02-11T00:27:17.140Z,0.90
2019-02-11T00:29:43.607Z,0.90
2019-02-11T00:32:10.070Z,0.90
2019-02-11T00:34:36.448Z,0.90
2019-02-11T00:37:03.019Z,1.13
2019-02-11T00:39:29.378Z,0.93
2019-02-11T00:41:55.935Z,1.23
2019-02-11T00:44:22.394Z,0.80
2019-02-11T00:46:48.848Z,1.30
2019-02-11T00:49:15.360Z,1.10
2019-02-11T00:51:41.740Z,1.20
2019-02-11T00:54:08.219Z,1.37
2019-02-11T00:56:34.574Z,1.20
2019-02-11T00:59:01.064Z,1.13
2019-02-11T01:01:27.407Z,1.00
2019-02-11T01:03:53.875Z,1.40
2019-02-11T01:06:20.338Z,1.30
2019-02-11T01:08:46.807Z,1.07
2019-02-11T01:11:13.251Z,1.53
2019-02-11T01:13:39.719Z,1.10
2019-02-11T01:16:06.179Z,1.17
2019-02-11T01:18:32.652Z,0.90
2019-02-11T01:20:59.023Z,0.90
2019-02-11T01:23:25.524Z,1.00
2019-02-11T01:25:51.970Z,0.97
2019-02-11T01:28:18.501Z,1.00
2019-02-11T01:30:44.955Z,0.90
2019-02-11T01:33:11.394Z,1.00
2019-02-11T01:35:37.872Z,1.13
2019-02-11T01:38:04.250Z,0.70
2019-02-11T01:40:30.730Z,0.90
2019-02-11T01:42:57.275Z,0.90
2019-02-11T01:45:23.746Z,0.80
2019-02-11T01:47:50.208Z,0.83
2019-02-11T01:50:16.796Z,0.80
2019-02-11T01:52:43.239Z,0.93
2019-02-11T01:55:09.707Z,0.80
2019-02-11T01:57:36.168Z,0.80
2019-02-11T02:00:04.035Z,0.90
2019-02-11T02:02:30.484Z,1.00
2019-02-11T02:04:56.970Z,0.97
2019-02-11T02:07:23.440Z,0.90
2019-02-11T02:09:49.894Z,1.27
2019-02-11T02:12:16.360Z,1.00
2019-02-11T02:14:42.810Z,0.80
2019-02-11T02:17:09.314Z,0.90
2019-02-11T02:19:35.754Z,0.83
2019-02-11T02:22:02.225Z,0.90
2019-02-11T02:24:28.605Z,1.07
2019-02-11T02:26:54.980Z,1.00
2019-02-11T02:29:21.366Z,1.23
2019-02-11T02:31:47.934Z,0.90
2019-02-11T02:34:14.287Z,1.07
2019-02-11T02:36:40.751Z,0.73
2019-02-11T02:39:07.304Z,1.00
2019-02-11T02:41:33.779Z,1.00
2019-02-11T02:44:00.135Z,0.80
2019-02-11T02:46:26.709Z,0.90
2019-02-11T02:48:53.154Z,1.00
2019-02-11T02:51:19.633Z,0.70
2019-02-11T02:53:46.011Z,0.80
2019-02-11T02:56:12.495Z,1.13
2019-02-11T02:58:38.849Z,1.07
2019-02-11T03:01:05.294Z,1.10
2019-02-11T03:03:31.763Z,1.00
2019-02-11T03:05:58.212Z,1.40
2019-02-11T03:08:24.680Z,1.00
2019-02-11T03:10:51.054Z,0.83
2019-02-11T03:13:17.433Z,1.10
2019-02-11T03:15:43.871Z,1.20
2019-02-11T03:18:10.441Z,1.30
2019-02-11T03:20:36.885Z,1.10
2019-02-11T03:23:03.358Z,1.33
2019-02-11T03:25:29.825Z,1.40
2019-02-11T03:27:56.223Z,1.10
2019-02-11T03:30:22.685Z,1.67
2019-02-11T03:32:49.267Z,1.20
2019-02-11T03:35:15.715Z,1.07
2019-02-11T03:37:42.201Z,1.40
2019-02-11T03:40:08.763Z,1.50
2019-02-11T03:42:35.236Z,1.50
2019-02-11T03:45:02.183Z,1.60
2019-02-11T03:47:28.656Z,1.50
2019-02-11T03:49:55.114Z,1.60
2019-02-11T03:52:21.660Z,1.47
2019-02-11T03:54:48.222Z,1.33
2019-02-11T03:57:14.684Z,1.40
2019-02-11T03:59:41.212Z,1.50
2019-02-11T04:02:07.821Z,1.40
2019-02-11T04:04:34.344Z,1.50
2019-02-11T04:07:00.835Z,1.30
2019-02-11T04:09:27.376Z,1.80
2019-02-11T04:11:53.876Z,1.50
2019-02-11T04:14:24.902Z,1.37
2019-02-11T04:16:48.623Z,1.67
2019-02-11T04:19:15.159Z,1.53
2019-02-11T04:21:41.651Z,1.03
2019-02-11T04:24:08.268Z,1.13
2019-02-11T04:26:34.775Z,1.20
2019-02-11T04:29:01.339Z,1.13
2019-02-11T04:31:27.830Z,1.40
2019-02-11T04:33:54.239Z,1.50
2019-02-11T04:36:20.605Z,1.20
2019-02-11T04:38:47.155Z,1.47
2019-02-11T04:41:13.711Z,1.30
2019-02-11T04:43:40.160Z,1.20
2019-02-11T04:46:06.627Z,1.13
2019-02-11T04:48:33.186Z,1.10
2019-02-11T04:50:59.645Z,1.07
2019-02-11T04:53:26.138Z,1.40
2019-02-11T04:55:52.644Z,1.30
2019-02-11T04:58:19.079Z,1.20
2019-02-11T05:00:45.532Z,1.10
2019-02-11T05:03:12.032Z,1.20
2019-02-11T05:05:38.555Z,1.03
2019-02-11T05:08:04.953Z,1.30
2019-02-11T05:10:31.411Z,1.40
2019-02-11T05:12:57.969Z,1.50
2019-02-11T05:15:24.548Z,1.30
2019-02-11T05:17:51.096Z,1.40
2019-02-11T05:20:17.467Z,1.27
2019-02-11T05:22:43.920Z,1.40
2019-02-11T05:25:10.401Z,1.50
2019-02-11T05:27:36.930Z,1.60
2019-02-11T05:30:05.250Z,1.93
2019-02-11T05:32:31.684Z,1.57
2019-02-11T05:34:58.129Z,1.50
2019-02-11T05:37:24.601Z,1.30
2019-02-11T05:39:51.048Z,1.37
2019-02-11T05:42:17.515Z,1.40
2019-02-11T05:44:53.214Z,1.60
2019-02-11T05:47:12.244Z,1.50
2019-02-11T05:49:38.702Z,1.90
2019-02-11T05:52:05.066Z,1.70
2019-02-11T05:54:31.511Z,2.00
2019-02-11T05:56:57.976Z,2.50
2019-02-11T05:59:24.430Z,2.57
2019-02-11T06:01:50.796Z,2.90
2019-02-11T06:04:17.350Z,2.97
2019-02-11T06:06:43.810Z,2.83
2019-02-11T06:09:10.364Z,3.03
2019-02-11T06:11:36.850Z,3.20
2019-02-11T06:14:03.407Z,3.03
2019-02-11T06:16:30.031Z,3.37
2019-02-11T06:18:56.478Z,3.30
2019-02-11T06:21:22.954Z,3.00
2019-02-11T06:23:49.398Z,3.77
2019-02-11T06:26:15.774Z,3.40
2019-02-11T06:28:42.286Z,3.40
2019-02-11T06:31:08.737Z,3.83
2019-02-11T06:33:35.112Z,3.17
2019-02-11T06:36:01.562Z,3.77
2019-02-11T06:38:28.046Z,3.40
2019-02-11T06:40:54.422Z,3.20
2019-02-11T06:43:20.883Z,3.47
2019-02-11T06:45:47.224Z,3.70
2019-02-11T06:48:13.604Z,3.60
2019-02-11T06:50:40.059Z,3.73
2019-02-11T06:53:06.540Z,3.67
2019-02-11T06:55:32.984Z,3.40
2019-02-11T06:57:59.463Z,3.10
2019-02-11T07:00:25.916Z,3.37
2019-02-11T07:02:52.374Z,3.30
2019-02-11T07:05:18.822Z,3.10
2019-02-11T07:07:45.294Z,3.23
2019-02-11T07:10:11.749Z,3.40
2019-02-11T07:12:38.214Z,2.70
2019-02-11T07:15:06.466Z,3.00
2019-02-11T07:17:33.043Z,2.27
2019-02-11T07:19:59.414Z,3.00
2019-02-11T07:22:25.959Z,2.83
2019-02-11T07:24:52.541Z,3.00
2019-02-11T07:27:18.983Z,2.50
2019-02-11T07:29:45.487Z,2.30
2019-02-11T07:32:11.931Z,2.50
2019-02-11T07:34:38.504Z,2.30
2019-02-11T07:37:04.884Z,2.90
2019-02-11T07:39:31.339Z,2.80
2019-02-11T07:41:59.694Z,2.47
2019-02-11T07:44:27.962Z,2.30
2019-02-11T07:46:54.424Z,2.80
2019-02-11T07:49:20.891Z,2.57
2019-02-11T07:51:47.443Z,2.70
2019-02-11T07:54:13.823Z,2.40
2019-02-11T07:56:40.172Z,2.80
2019-02-11T07:59:06.651Z,2.73
2019-02-11T08:01:33.095Z,3.13
2019-02-11T08:03:59.685Z,3.00
2019-02-11T08:06:26.038Z,3.17
2019-02-11T08:08:52.530Z,3.27
2019-02-11T08:11:18.886Z,2.70
2019-02-11T08:13:45.398Z,3.00
2019-02-11T08:16:11.746Z,3.20
2019-02-11T08:18:38.296Z,2.60
2019-02-11T08:21:04.867Z,2.87
2019-02-11T08:23:31.315Z,3.30
2019-02-11T08:25:57.783Z,4.00
2019-02-11T08:28:24.424Z,3.50
2019-02-11T08:30:51.007Z,2.80
2019-02-11T08:33:17.542Z,2.67
2019-02-11T08:35:43.990Z,3.03
2019-02-11T08:38:10.442Z,3.33
2019-02-11T08:40:36.823Z,3.07
2019-02-11T08:43:03.175Z,2.50
2019-02-11T08:45:29.550Z,3.20
2019-02-11T08:47:55.890Z,3.37
2019-02-11T08:50:22.471Z,3.00
2019-02-11T08:52:48.928Z,3.40
2019-02-11T08:55:15.290Z,2.73
2019-02-11T08:57:41.660Z,3.20
2019-02-11T09:00:09.354Z,3.40
2019-02-11T09:02:35.998Z,3.27
2019-02-11T09:05:02.984Z,3.03
2019-02-11T09:07:29.338Z,2.97
2019-02-11T09:09:55.910Z,2.97
2019-02-11T09:12:22.466Z,2.17
2019-02-11T09:14:48.842Z,2.93
2019-02-11T09:17:15.199Z,2.57
2019-02-11T09:19:41.647Z,3.20
2019-02-11T09:22:08.014Z,2.93
2019-02-11T09:24:34.951Z,2.73
2019-02-11T09:27:01.537Z,3.10
2019-02-11T09:29:28.126Z,2.70
2019-02-11T09:31:54.491Z,2.90
2019-02-11T09:34:20.938Z,3.00
2019-02-11T09:36:47.600Z,2.93
2019-02-11T09:39:14.048Z,2.80
2019-02-11T09:41:40.537Z,3.00
2019-02-11T09:44:06.992Z,3.20
2019-02-11T09:46:33.367Z,3.37
2019-02-11T09:48:59.754Z,3.17
2019-02-11T09:51:26.560Z,3.40
2019-02-11T09:53:53.096Z,3.70
2019-02-11T09:56:19.586Z,3.60
2019-02-11T09:58:45.949Z,3.40
2019-02-11T10:01:12.523Z,3.80
2019-02-11T10:03:38.976Z,3.73
2019-02-11T10:06:05.456Z,4.03
2019-02-11T10:08:31.803Z,3.70
2019-02-11T10:10:58.183Z,3.43
2019-02-11T10:13:24.641Z,4.10
2019-02-11T10:15:51.288Z,3.70
2019-02-11T10:18:17.752Z,4.47
2019-02-11T10:20:44.203Z,4.37
2019-02-11T10:23:10.779Z,4.03
2019-02-11T10:25:37.389Z,4.23
2019-02-11T10:28:05.459Z,4.37
2019-02-11T10:30:32.034Z,4.47
2019-02-11T10:32:58.610Z,4.00
2019-02-11T10:35:25.173Z,4.70
2019-02-11T10:37:51.751Z,4.60
2019-02-11T10:40:18.199Z,4.10
2019-02-11T10:42:44.642Z,3.93
2019-02-11T10:45:12.283Z,3.57
2019-02-11T10:47:39.750Z,3.90
2019-02-11T10:50:07.803Z,3.37
2019-02-11T10:52:34.293Z,4.00
2019-02-11T10:55:00.855Z,4.13
2019-02-11T10:57:27.419Z,5.73
2019-02-11T10:59:53.994Z,4.07
2019-02-11T11:02:20.463Z,4.37
2019-02-11T11:04:46.866Z,4.50
2019-02-11T11:07:13.414Z,5.10
2019-02-11T11:09:39.788Z,4.53
2019-02-11T11:12:06.646Z,4.13
2019-02-11T11:14:33.118Z,4.90
2019-02-11T11:16:59.571Z,4.30
2019-02-11T11:19:26.173Z,3.87
2019-02-11T11:21:52.644Z,5.13
2019-02-11T11:24:19.202Z,4.17
2019-02-11T11:26:45.656Z,4.93
2019-02-11T11:29:12.161Z,4.27
2019-02-11T11:31:38.765Z,5.90
2019-02-11T11:34:05.227Z,7.40
2019-02-11T11:36:31.791Z,5.57
2019-02-11T11:38:58.359Z,4.30
2019-02-11T11:41:24.861Z,3.70
2019-02-11T11:43:51.503Z,4.27
2019-02-11T11:46:17.851Z,3.90
2019-02-11T11:48:44.320Z,3.93
2019-02-11T11:51:10.737Z,3.33
2019-02-11T11:53:37.087Z,3.80
2019-02-11T11:56:03.564Z,3.10
2019-02-11T11:58:30.003Z,3.47
2019-02-11T12:00:56.501Z,3.47
2019-02-11T12:03:22.947Z,3.30
2019-02-11T12:05:49.405Z,3.17
2019-02-11T12:08:15.795Z,3.87
2019-02-11T12:10:42.338Z,3.87
2019-02-11T12:13:22.551Z,3.67
2019-02-11T12:15:38.042Z,2.83
2019-02-11T12:18:04.619Z,3.40
2019-02-11T12:20:33.496Z,3.50
2019-02-11T12:22:59.346Z,3.43
2019-02-11T12:25:25.799Z,3.70
2019-02-11T12:27:52.357Z,3.00
2019-02-11T12:30:20.656Z,3.33
2019-02-11T12:32:47.108Z,3.10
2019-02-11T12:35:13.680Z,3.53
2019-02-11T12:37:40.056Z,3.33
2019-02-11T12:40:07.735Z,3.30
2019-02-11T12:42:34.289Z,2.80
2019-02-11T12:45:00.947Z,2.90
2019-02-11T12:47:27.527Z,2.93
2019-02-11T12:49:53.969Z,2.70
2019-02-11T12:52:20.413Z,2.40
2019-02-11T12:54:46.882Z,3.00
2019-02-11T12:57:13.462Z,2.20
2019-02-11T12:59:39.867Z,2.53
2019-02-11T13:02:06.448Z,2.13
2019-02-11T13:04:32.895Z,2.83
2019-02-11T13:06:59.325Z,2.50
2019-02-11T13:09:25.824Z,2.30
2019-02-11T13:11:52.385Z,2.20
2019-02-11T13:14:19.165Z,2.80
2019-02-11T13:16:45.650Z,2.43
2019-02-11T13:19:12.009Z,2.50
2019-02-11T13:21:38.584Z,2.20
2019-02-11T13:24:05.142Z,2.30
2019-02-11T13:26:31.690Z,2.70
2019-02-11T13:28:58.288Z,3.07
2019-02-11T13:31:24.906Z,2.60
2019-02-11T13:33:51.473Z,1.73
2019-02-11T13:36:17.942Z,2.30
2019-02-11T13:38:44.410Z,2.20
2019-02-11T13:41:10.873Z,2.83
2019-02-11T13:43:37.422Z,2.97
2019-02-11T13:46:03.973Z,2.37
2019-02-11T13:48:33.752Z,2.30
2019-02-11T13:50:59.337Z,2.30
2019-02-11T13:53:25.905Z,2.03
2019-02-11T13:55:52.352Z,2.20
2019-02-11T13:58:18.938Z,1.83
2019-02-11T14:00:49.782Z,2.13
2019-02-11T14:03:13.699Z,2.00
2019-02-11T14:05:40.377Z,2.20
2019-02-11T14:08:06.941Z,1.97
2019-02-11T14:10:33.450Z,2.20
2019-02-11T14:13:00.235Z,2.60
2019-02-11T14:15:26.859Z,2.20
2019-02-11T14:18:11.006Z,2.00
2019-02-11T14:20:22.671Z,2.30
2019-02-11T14:22:49.115Z,2.10
2019-02-11T14:25:15.587Z,1.90
2019-02-11T14:27:42.095Z,2.00
2019-02-11T14:30:10.522Z,2.13
2019-02-11T14:32:37.480Z,2.33
2019-02-11T14:35:07.611Z,2.00
2019-02-11T14:37:34.258Z,2.00
2019-02-11T14:40:00.867Z,2.23
2019-02-11T14:42:27.422Z,1.83
2019-02-11T14:44:54.633Z,1.97
2019-02-11T14:47:21.115Z,1.70
2019-02-11T14:49:47.664Z,2.10
2019-02-11T14:52:14.226Z,1.93
2019-02-11T14:54:40.598Z,2.20
2019-02-11T14:57:06.967Z,1.63
2019-02-11T14:59:33.364Z,1.73
2019-02-11T15:02:00.041Z,1.97
2019-02-11T15:04:26.404Z,2.23
2019-02-11T15:06:52.776Z,2.07
2019-02-11T15:09:19.385Z,1.90
2019-02-11T15:11:46.181Z,2.13
2019-02-11T15:14:12.796Z,1.87
2019-02-11T15:16:39.207Z,1.57
2019-02-11T15:19:05.811Z,1.57
2019-02-11T15:21:32.175Z,1.50
2019-02-11T15:23:58.634Z,1.70
2019-02-11T15:26:25.228Z,1.77
2019-02-11T15:28:51.743Z,1.63
2019-02-11T15:31:18.317Z,1.90
2019-02-11T15:33:44.659Z,1.60
2019-02-11T15:36:11.029Z,2.00
2019-02-11T15:38:37.389Z,2.00
2019-02-11T15:41:04.010Z,1.90
2019-02-11T15:43:30.694Z,1.83
2019-02-11T15:45:57.268Z,2.00
2019-02-11T15:48:23.836Z,1.77
2019-02-11T15:50:50.253Z,1.87
2019-02-11T15:53:16.695Z,1.40
2019-02-11T15:55:43.158Z,1.60
2019-02-11T15:58:09.729Z,1.60
2019-02-11T16:00:36.324Z,1.83
2019-02-11T16:03:02.875Z,1.70
2019-02-11T16:05:29.339Z,1.40
2019-02-11T16:07:55.895Z,1.47
2019-02-11T16:10:23.673Z,1.60
2019-02-11T16:12:50.235Z,1.40
2019-02-11T16:15:16.682Z,1.73
2019-02-11T16:17:43.098Z,1.70
2019-02-11T16:20:10.756Z,1.90
2019-02-11T16:22:37.233Z,1.60
2019-02-11T16:25:05.115Z,2.00
2019-02-11T16:27:31.628Z,1.60
2019-02-11T16:29:58.010Z,1.70
2019-02-11T16:32:24.372Z,2.00
2019-02-11T16:34:50.769Z,1.60
2019-02-11T16:37:17.127Z,1.60
2019-02-11T16:39:43.483Z,1.30
2019-02-11T16:42:09.847Z,1.57
2019-02-11T16:44:36.341Z,1.40
2019-02-11T16:47:03.426Z,1.67
2019-02-11T16:49:29.975Z,1.40
2019-02-11T16:51:56.343Z,1.40
2019-02-11T16:54:22.895Z,1.60
2019-02-11T16:56:49.443Z,1.30
2019-02-11T16:59:16.009Z,1.73
2019-02-11T17:01:42.355Z,2.03
2019-02-11T17:04:08.881Z,2.00
2019-02-11T17:06:35.322Z,2.13
2019-02-11T17:09:02.007Z,2.03
2019-02-11T17:11:28.465Z,2.87
2019-02-11T17:13:54.819Z,2.10
2019-02-11T17:16:21.263Z,2.07
2019-02-11T17:18:47.876Z,2.20
2019-02-11T17:21:14.332Z,4.30
2019-02-11T17:23:40.932Z,2.83
2019-02-11T17:26:07.377Z,2.40
2019-02-11T17:28:33.856Z,2.20
2019-02-11T17:31:00.528Z,3.80
2019-02-11T17:33:26.904Z,2.80
2019-02-11T17:35:53.396Z,3.93
2019-02-11T17:38:19.759Z,2.73
2019-02-11T17:40:46.360Z,2.20
2019-02-11T17:43:12.715Z,2.37
2019-02-11T17:45:39.168Z,2.00
2019-02-11T17:48:05.672Z,1.80
2019-02-11T17:50:32.979Z,2.20
2019-02-11T17:53:01.177Z,2.13
2019-02-11T17:55:27.656Z,1.90
2019-02-11T17:57:54.096Z,2.20
2019-02-11T18:00:24.288Z,3.50
2019-02-11T18:02:50.840Z,3.53
2019-02-11T18:05:17.319Z,2.63
2019-02-11T18:07:43.673Z,1.80
2019-02-11T18:10:10.081Z,2.00
2019-02-11T18:12:36.540Z,2.50
2019-02-11T18:15:04.146Z,2.43
2019-02-11T18:17:30.555Z,2.70
2019-02-11T18:19:57.148Z,2.17
2019-02-11T18:22:23.603Z,2.40
2019-02-11T18:24:49.989Z,2.70
2019-02-11T18:27:16.348Z,2.40
2019-02-11T18:29:42.755Z,2.50
2019-02-11T18:32:09.216Z,2.57
2019-02-11T18:34:35.680Z,2.60
2019-02-11T18:37:02.251Z,2.60
2019-02-11T18:39:28.723Z,3.10
2019-02-11T18:41:55.171Z,2.73
2019-02-11T18:44:21.664Z,3.10
2019-02-11T18:46:48.110Z,2.90
2019-02-11T18:49:14.497Z,2.57
2019-02-11T18:51:41.102Z,2.53
2019-02-11T18:54:07.543Z,3.60
2019-02-11T18:56:33.931Z,2.73
2019-02-11T18:59:02.276Z,3.00
2019-02-11T19:01:28.859Z,4.23
2019-02-11T19:03:55.415Z,2.80
2019-02-11T19:06:22.017Z,3.10
2019-02-11T19:08:48.388Z,2.93
2019-02-11T19:11:17.510Z,3.57
2019-02-11T19:13:43.980Z,4.83
2019-02-11T19:16:10.338Z,3.03
2019-02-11T19:18:36.899Z,3.10
2019-02-11T19:21:03.469Z,2.73
2019-02-11T19:23:30.023Z,3.10
2019-02-11T19:25:56.513Z,3.00
2019-02-11T19:28:22.962Z,3.13
2019-02-11T19:30:49.481Z,3.30
2019-02-11T19:33:15.831Z,2.33
2019-02-11T19:35:42.204Z,2.60
2019-02-11T19:38:08.563Z,2.37
2019-02-11T19:40:35.210Z,2.80
2019-02-11T19:43:01.585Z,3.03
2019-02-11T19:45:28.043Z,2.00
2019-02-11T19:47:54.423Z,2.53
2019-02-11T19:50:20.871Z,2.10
2019-02-11T19:52:47.455Z,2.10
2019-02-11T19:55:14.301Z,2.20
2019-02-11T19:57:40.655Z,2.00
2019-02-11T20:00:09.007Z,2.10
2019-02-11T20:02:35.608Z,1.80
2019-02-11T20:05:02.362Z,2.40
2019-02-11T20:07:28.837Z,1.80
2019-02-11T20:09:55.179Z,2.37
2019-02-11T20:12:21.775Z,2.10
2019-02-11T20:14:48.147Z,2.37
2019-02-11T20:17:14.511Z,2.37
2019-02-11T20:19:41.064Z,2.70
2019-02-11T20:22:08.043Z,2.60
2019-02-11T20:24:34.392Z,2.80
2019-02-11T20:27:00.762Z,2.87
2019-02-11T20:29:27.344Z,2.60
2019-02-11T20:31:53.729Z,2.03
2019-02-11T20:34:20.181Z,2.20
2019-02-11T20:36:46.731Z,2.67
2019-02-11T20:39:13.243Z,1.80
2019-02-11T20:41:39.594Z,2.50
2019-02-11T20:44:06.049Z,2.40
2019-02-11T20:46:32.595Z,1.97
2019-02-11T20:48:59.060Z,1.70
2019-02-11T20:51:25.709Z,2.77
2019-02-11T20:53:52.083Z,2.53
2019-02-11T20:56:18.499Z,2.43
2019-02-11T20:58:45.082Z,2.50
2019-02-11T21:01:11.427Z,2.60
2019-02-11T21:03:38.023Z,2.73
2019-02-11T21:06:04.501Z,2.80
2019-02-11T21:08:31.081Z,3.23
2019-02-11T21:10:57.523Z,2.70
2019-02-11T21:13:24.099Z,2.87
2019-02-11T21:15:50.548Z,2.47
2019-02-11T21:18:16.931Z,2.77
2019-02-11T21:20:44.020Z,2.33
2019-02-11T21:23:10.373Z,2.40
2019-02-11T21:25:36.958Z,2.37
2019-02-11T21:28:03.516Z,2.30
2019-02-11T21:30:29.895Z,3.17
2019-02-11T21:32:56.442Z,2.50
2019-02-11T21:35:23.557Z,2.77
2019-02-11T21:37:50.100Z,2.63
2019-02-11T21:40:16.568Z,2.37
2019-02-11T21:42:44.556Z,2.70
2019-02-11T21:45:12.509Z,2.87
2019-02-11T21:47:38.923Z,2.87
2019-02-11T21:50:06.990Z,2.77
2019-02-11T21:52:33.539Z,2.60
2019-02-11T21:55:00.024Z,3.13
2019-02-11T21:57:26.383Z,2.70
2019-02-11T21:59:52.842Z,2.90
2019-02-11T22:02:19.299Z,2.80
2019-02-11T22:04:45.692Z,3.67
2019-02-11T22:07:12.135Z,2.63
2019-02-11T22:09:38.609Z,2.93
2019-02-11T22:12:04.957Z,3.63
2019-02-11T22:14:31.302Z,2.57
2019-02-11T22:16:57.683Z,3.50
2019-02-11T22:19:24.898Z,3.83
2019-02-11T22:21:51.419Z,3.17
2019-02-11T22:24:17.885Z,3.50
2019-02-11T22:26:44.235Z,2.90
2019-02-11T22:29:10.611Z,2.80
2019-02-11T22:31:37.023Z,2.50
2019-02-11T22:34:03.476Z,2.80
2019-02-11T22:36:29.844Z,3.60
2019-02-11T22:38:56.395Z,3.63
2019-02-11T22:41:22.751Z,3.10
2019-02-11T22:43:49.298Z,2.80
2019-02-11T22:46:15.666Z,3.17
2019-02-11T22:48:42.014Z,2.90
2019-02-11T22:51:08.618Z,3.27
2019-02-11T22:53:35.062Z,2.63
2019-02-11T22:56:01.538Z,2.90
2019-02-11T22:58:28.011Z,3.80
2019-02-11T23:00:56.881Z,4.23
2019-02-11T23:03:23.495Z,3.60
2019-02-11T23:05:49.937Z,4.00
2019-02-11T23:08:16.570Z,4.00
2019-02-11T23:10:43.085Z,3.73
2019-02-11T23:13:09.616Z,4.40
2019-02-11T23:15:35.985Z,4.40
2019-02-11T23:18:02.475Z,4.30
2019-02-11T23:20:28.927Z,4.00
2019-02-11T23:22:55.495Z,4.80
2019-02-11T23:25:21.946Z,4.60
2019-02-11T23:27:48.499Z,3.40
2019-02-11T23:30:15.000Z,4.23
2019-02-11T23:32:41.592Z,3.53
2019-02-11T23:35:07.917Z,3.30
2019-02-11T23:37:34.401Z,3.10
2019-02-11T23:40:00.851Z,3.40
2019-02-11T23:42:27.320Z,3.10
2019-02-11T23:44:53.803Z,3.17
2019-02-11T23:47:20.478Z,2.83
2019-02-11T23:49:47.026Z,3.10
2019-02-11T23:52:13.474Z,2.90
2019-02-11T23:54:39.938Z,2.40
2019-02-11T23:57:06.547Z,2.77
2019-02-11T23:59:33.022Z,2.93
